sensor_id;sensor_type;location;lat;lon;timestamp;P1;durP1;ratioP1;P2;durP2;ratioP2
22060;SDS011;11194;48.092;-1.382;2024-03-17T00:00:59;574.95;;;542.38;;
22060;SDS011;11194;48.092;-1.382;2024-03-17T00:03:25;570.65;;;538.35;;
22060;SDS011;11194;48.092;-1.382;2024-03-17T00:05:57;578.67;;;545.83;;
22060;SDS011;11194;48.092;-1.382;2024-03-17T00:08:23;563.85;;;531.75;;
22060;SDS011;11194;48.092;-1.382;2024-03-17T00:10:53;548.28;;;517.42;;
22060;SDS011;11194;48.092;-1.382;2024-03-17T00:13:19;542.25;;;511.52;;
22060;SDS011;11194;48.092;-1.382;2024-03-17T00:15:46;544.60;;;513.80;;
22060;SDS011;11194;48.092;-1.382;2024-03-17T00:18:12;537.42;;;506.50;;
22060;SDS011;11194;48.092;-1.382;2024-03-17T00:20:39;547.15;;;516.20;;
22060;SDS011;11194;48.092;-1.382;2024-03-17T00:23:05;542.33;;;512.38;;
22060;SDS011;11194;48.092;-1.382;2024-03-17T00:25:32;542.17;;;512.08;;
22060;SDS011;11194;48.092;-1.382;2024-03-17T00:27:59;534.92;;;505.27;;
22060;SDS011;11194;48.092;-1.382;2024-03-17T00:30:25;540.88;;;510.83;;
22060;SDS011;11194;48.092;-1.382;2024-03-17T00:32:51;535.55;;;505.65;;
22060;SDS011;11194;48.092;-1.382;2024-03-17T00:35:17;524.47;;;495.92;;
22060;SDS011;11194;48.092;-1.382;2024-03-17T00:37:47;536.55;;;507.55;;
22060;SDS011;11194;48.092;-1.382;2024-03-17T00:40:14;520.83;;;492.73;;
22060;SDS011;11194;48.092;-1.382;2024-03-17T00:42:41;508.95;;;481.27;;
22060;SDS011;11194;48.092;-1.382;2024-03-17T00:45:07;497.67;;;470.17;;
22060;SDS011;11194;48.092;-1.382;2024-03-17T00:47:35;498.75;;;471.35;;
22060;SDS011;11194;48.092;-1.382;2024-03-17T00:50:01;508.60;;;480.80;;
22060;SDS011;11194;48.092;-1.382;2024-03-17T00:52:29;506.77;;;478.80;;
22060;SDS011;11194;48.092;-1.382;2024-03-17T00:54:55;519.30;;;491.33;;
22060;SDS011;11194;48.092;-1.382;2024-03-17T00:57:21;618.25;;;578.33;;
22060;SDS011;11194;48.092;-1.382;2024-03-17T00:59:50;616.67;;;575.92;;
22060;SDS011;11194;48.092;-1.382;2024-03-17T01:02:17;618.83;;;577.40;;
22060;SDS011;11194;48.092;-1.382;2024-03-17T01:04:43;630.42;;;587.65;;
22060;SDS011;11194;48.092;-1.382;2024-03-17T01:07:10;629.97;;;586.55;;
22060;SDS011;11194;48.092;-1.382;2024-03-17T01:09:36;625.22;;;582.20;;
22060;SDS011;11194;48.092;-1.382;2024-03-17T01:12:02;626.50;;;583.40;;
22060;SDS011;11194;48.092;-1.382;2024-03-17T01:14:28;626.17;;;582.90;;
22060;SDS011;11194;48.092;-1.382;2024-03-17T01:16:55;624.35;;;581.63;;
22060;SDS011;11194;48.092;-1.382;2024-03-17T01:19:21;617.33;;;574.33;;
22060;SDS011;11194;48.092;-1.382;2024-03-17T01:21:47;620.30;;;576.72;;
22060;SDS011;11194;48.092;-1.382;2024-03-17T01:24:13;614.92;;;571.65;;
22060;SDS011;11194;48.092;-1.382;2024-03-17T01:26:39;631.33;;;587.20;;
22060;SDS011;11194;48.092;-1.382;2024-03-17T01:29:05;616.92;;;573.03;;
22060;SDS011;11194;48.092;-1.382;2024-03-17T01:31:34;630.22;;;586.78;;
22060;SDS011;11194;48.092;-1.382;2024-03-17T01:34:00;623.10;;;579.45;;
22060;SDS011;11194;48.092;-1.382;2024-03-17T01:36:26;617.63;;;574.92;;
22060;SDS011;11194;48.092;-1.382;2024-03-17T01:38:52;614.08;;;571.42;;
22060;SDS011;11194;48.092;-1.382;2024-03-17T01:41:18;630.22;;;586.53;;
22060;SDS011;11194;48.092;-1.382;2024-03-17T01:43:44;631.47;;;587.83;;
22060;SDS011;11194;48.092;-1.382;2024-03-17T01:46:11;626.15;;;583.00;;
22060;SDS011;11194;48.092;-1.382;2024-03-17T01:48:38;636.90;;;593.38;;
22060;SDS011;11194;48.092;-1.382;2024-03-17T01:51:05;619.90;;;577.80;;
22060;SDS011;11194;48.092;-1.382;2024-03-17T01:53:31;622.47;;;579.17;;
22060;SDS011;11194;48.092;-1.382;2024-03-17T01:55:57;616.50;;;573.80;;
22060;SDS011;11194;48.092;-1.382;2024-03-17T01:58:25;612.78;;;570.60;;
22060;SDS011;11194;48.092;-1.382;2024-03-17T02:00:51;600.38;;;559.58;;
22060;SDS011;11194;48.092;-1.382;2024-03-17T02:03:17;609.42;;;567.75;;
22060;SDS011;11194;48.092;-1.382;2024-03-17T02:05:43;605.10;;;562.90;;
22060;SDS011;11194;48.092;-1.382;2024-03-17T02:08:09;606.20;;;564.65;;
22060;SDS011;11194;48.092;-1.382;2024-03-17T02:10:36;591.03;;;550.50;;
22060;SDS011;11194;48.092;-1.382;2024-03-17T02:13:02;595.72;;;555.38;;
22060;SDS011;11194;48.092;-1.382;2024-03-17T02:15:32;602.80;;;560.90;;
22060;SDS011;11194;48.092;-1.382;2024-03-17T02:17:58;608.25;;;566.67;;
22060;SDS011;11194;48.092;-1.382;2024-03-17T02:20:24;618.60;;;576.13;;
22060;SDS011;11194;48.092;-1.382;2024-03-17T02:23:11;614.83;;;572.35;;
22060;SDS011;11194;48.092;-1.382;2024-03-17T02:25:37;616.97;;;574.40;;
22060;SDS011;11194;48.092;-1.382;2024-03-17T02:28:04;617.05;;;573.30;;
22060;SDS011;11194;48.092;-1.382;2024-03-17T02:30:30;617.33;;;574.75;;
22060;SDS011;11194;48.092;-1.382;2024-03-17T02:32:56;627.92;;;583.88;;
22060;SDS011;11194;48.092;-1.382;2024-03-17T02:35:23;637.70;;;592.72;;
22060;SDS011;11194;48.092;-1.382;2024-03-17T02:37:49;639.60;;;595.05;;
22060;SDS011;11194;48.092;-1.382;2024-03-17T02:40:16;626.47;;;581.83;;
22060;SDS011;11194;48.092;-1.382;2024-03-17T02:42:44;631.10;;;586.78;;
22060;SDS011;11194;48.092;-1.382;2024-03-17T02:45:10;627.47;;;583.03;;
22060;SDS011;11194;48.092;-1.382;2024-03-17T02:47:39;619.25;;;575.58;;
22060;SDS011;11194;48.092;-1.382;2024-03-17T02:50:06;611.17;;;567.72;;
22060;SDS011;11194;48.092;-1.382;2024-03-17T02:52:34;622.72;;;578.60;;
22060;SDS011;11194;48.092;-1.382;2024-03-17T02:55:00;616.83;;;572.40;;
22060;SDS011;11194;48.092;-1.382;2024-03-17T02:57:26;594.28;;;551.20;;
22060;SDS011;11194;48.092;-1.382;2024-03-17T02:59:55;602.75;;;558.50;;
22060;SDS011;11194;48.092;-1.382;2024-03-17T03:02:21;608.55;;;563.95;;
22060;SDS011;11194;48.092;-1.382;2024-03-17T03:04:48;607.33;;;562.42;;
22060;SDS011;11194;48.092;-1.382;2024-03-17T03:07:14;627.22;;;580.15;;
22060;SDS011;11194;48.092;-1.382;2024-03-17T03:09:40;636.83;;;589.22;;
22060;SDS011;11194;48.092;-1.382;2024-03-17T03:12:07;713.63;;;660.88;;
22060;SDS011;11194;48.092;-1.382;2024-03-17T03:14:33;742.65;;;684.17;;
22060;SDS011;11194;48.092;-1.382;2024-03-17T03:16:59;616.33;;;568.30;;
22060;SDS011;11194;48.092;-1.382;2024-03-17T03:19:26;625.78;;;578.70;;
22060;SDS011;11194;48.092;-1.382;2024-03-17T03:21:52;632.03;;;583.75;;
22060;SDS011;11194;48.092;-1.382;2024-03-17T03:24:18;613.05;;;566.05;;
22060;SDS011;11194;48.092;-1.382;2024-03-17T03:26:44;622.20;;;574.97;;
22060;SDS011;11194;48.092;-1.382;2024-03-17T03:29:10;637.28;;;589.00;;
22060;SDS011;11194;48.092;-1.382;2024-03-17T03:31:37;617.63;;;570.40;;
22060;SDS011;11194;48.092;-1.382;2024-03-17T03:34:06;650.22;;;600.47;;
22060;SDS011;11194;48.092;-1.382;2024-03-17T03:36:33;629.55;;;580.63;;
22060;SDS011;11194;48.092;-1.382;2024-03-17T03:38:59;612.63;;;565.30;;
22060;SDS011;11194;48.092;-1.382;2024-03-17T03:41:26;625.60;;;577.97;;
22060;SDS011;11194;48.092;-1.382;2024-03-17T03:43:52;607.83;;;560.92;;
22060;SDS011;11194;48.092;-1.382;2024-03-17T03:46:18;606.28;;;559.63;;
22060;SDS011;11194;48.092;-1.382;2024-03-17T03:48:45;603.78;;;557.22;;
22060;SDS011;11194;48.092;-1.382;2024-03-17T03:51:11;604.17;;;558.00;;
22060;SDS011;11194;48.092;-1.382;2024-03-17T03:53:37;613.88;;;567.55;;
22060;SDS011;11194;48.092;-1.382;2024-03-17T03:56:05;604.88;;;559.00;;
22060;SDS011;11194;48.092;-1.382;2024-03-17T03:58:35;603.38;;;556.92;;
22060;SDS011;11194;48.092;-1.382;2024-03-17T04:01:04;622.50;;;575.40;;
22060;SDS011;11194;48.092;-1.382;2024-03-17T04:03:31;587.85;;;542.33;;
22060;SDS011;11194;48.092;-1.382;2024-03-17T04:06:04;614.30;;;568.75;;
22060;SDS011;11194;48.092;-1.382;2024-03-17T04:08:31;579.10;;;534.92;;
22060;SDS011;11194;48.092;-1.382;2024-03-17T04:10:58;572.53;;;528.00;;
22060;SDS011;11194;48.092;-1.382;2024-03-17T04:13:24;577.60;;;533.05;;
22060;SDS011;11194;48.092;-1.382;2024-03-17T04:15:50;591.17;;;545.38;;
22060;SDS011;11194;48.092;-1.382;2024-03-17T04:18:21;583.22;;;538.80;;
22060;SDS011;11194;48.092;-1.382;2024-03-17T04:20:47;592.33;;;547.13;;
22060;SDS011;11194;48.092;-1.382;2024-03-17T04:23:13;597.30;;;551.40;;
22060;SDS011;11194;48.092;-1.382;2024-03-17T04:25:39;597.20;;;551.65;;
22060;SDS011;11194;48.092;-1.382;2024-03-17T04:28:07;580.30;;;535.28;;
22060;SDS011;11194;48.092;-1.382;2024-03-17T04:30:33;579.17;;;534.00;;
22060;SDS011;11194;48.092;-1.382;2024-03-17T04:32:59;587.53;;;541.85;;
22060;SDS011;11194;48.092;-1.382;2024-03-17T04:35:25;575.70;;;530.30;;
22060;SDS011;11194;48.092;-1.382;2024-03-17T04:37:51;576.28;;;531.28;;
22060;SDS011;11194;48.092;-1.382;2024-03-17T04:40:18;584.00;;;538.70;;
22060;SDS011;11194;48.092;-1.382;2024-03-17T04:42:44;573.80;;;529.35;;
22060;SDS011;11194;48.092;-1.382;2024-03-17T04:45:10;572.45;;;528.15;;
22060;SDS011;11194;48.092;-1.382;2024-03-17T04:47:36;583.75;;;538.88;;
22060;SDS011;11194;48.092;-1.382;2024-03-17T04:50:03;572.83;;;528.05;;
22060;SDS011;11194;48.092;-1.382;2024-03-17T04:52:29;576.53;;;531.78;;
22060;SDS011;11194;48.092;-1.382;2024-03-17T04:54:55;585.28;;;540.63;;
22060;SDS011;11194;48.092;-1.382;2024-03-17T04:57:21;567.70;;;523.45;;
22060;SDS011;11194;48.092;-1.382;2024-03-17T04:59:47;548.03;;;504.02;;
22060;SDS011;11194;48.092;-1.382;2024-03-17T05:02:13;572.83;;;529.40;;
22060;SDS011;11194;48.092;-1.382;2024-03-17T05:04:39;570.90;;;527.28;;
22060;SDS011;11194;48.092;-1.382;2024-03-17T05:07:07;558.03;;;514.60;;
22060;SDS011;11194;48.092;-1.382;2024-03-17T05:09:34;576.95;;;532.70;;
22060;SDS011;11194;48.092;-1.382;2024-03-17T05:12:00;601.58;;;556.15;;
22060;SDS011;11194;48.092;-1.382;2024-03-17T05:14:27;604.47;;;559.03;;
22060;SDS011;11194;48.092;-1.382;2024-03-17T05:16:53;604.53;;;558.00;;
22060;SDS011;11194;48.092;-1.382;2024-03-17T05:19:19;594.28;;;547.55;;
22060;SDS011;11194;48.092;-1.382;2024-03-17T05:21:45;592.63;;;546.05;;
22060;SDS011;11194;48.092;-1.382;2024-03-17T05:24:11;586.97;;;540.35;;
22060;SDS011;11194;48.092;-1.382;2024-03-17T05:26:38;591.13;;;544.70;;
22060;SDS011;11194;48.092;-1.382;2024-03-17T05:29:04;591.58;;;545.45;;
22060;SDS011;11194;48.092;-1.382;2024-03-17T05:31:30;602.03;;;555.85;;
22060;SDS011;11194;48.092;-1.382;2024-03-17T05:33:56;589.42;;;543.85;;
22060;SDS011;11194;48.092;-1.382;2024-03-17T05:36:22;589.42;;;543.58;;
22060;SDS011;11194;48.092;-1.382;2024-03-17T05:38:48;603.00;;;556.90;;
22060;SDS011;11194;48.092;-1.382;2024-03-17T05:41:14;586.05;;;539.97;;
22060;SDS011;11194;48.092;-1.382;2024-03-17T05:43:40;596.95;;;550.22;;
22060;SDS011;11194;48.092;-1.382;2024-03-17T05:46:08;614.95;;;568.20;;
22060;SDS011;11194;48.092;-1.382;2024-03-17T05:48:35;613.50;;;567.00;;
22060;SDS011;11194;48.092;-1.382;2024-03-17T05:51:04;606.85;;;560.78;;
22060;SDS011;11194;48.092;-1.382;2024-03-17T05:53:31;603.58;;;557.13;;
22060;SDS011;11194;48.092;-1.382;2024-03-17T05:55:58;620.70;;;573.42;;
22060;SDS011;11194;48.092;-1.382;2024-03-17T05:58:24;617.25;;;570.20;;
22060;SDS011;11194;48.092;-1.382;2024-03-17T06:00:50;609.85;;;563.65;;
22060;SDS011;11194;48.092;-1.382;2024-03-17T06:03:16;627.53;;;580.25;;
22060;SDS011;11194;48.092;-1.382;2024-03-17T06:05:42;632.95;;;585.83;;
22060;SDS011;11194;48.092;-1.382;2024-03-17T06:08:12;627.47;;;580.55;;
22060;SDS011;11194;48.092;-1.382;2024-03-17T06:10:42;637.50;;;590.35;;
22060;SDS011;11194;48.092;-1.382;2024-03-17T06:13:08;631.42;;;584.53;;
22060;SDS011;11194;48.092;-1.382;2024-03-17T06:15:38;630.95;;;583.95;;
22060;SDS011;11194;48.092;-1.382;2024-03-17T06:18:04;629.45;;;582.10;;
22060;SDS011;11194;48.092;-1.382;2024-03-17T06:20:33;643.55;;;595.22;;
22060;SDS011;11194;48.092;-1.382;2024-03-17T06:23:00;642.17;;;594.22;;
22060;SDS011;11194;48.092;-1.382;2024-03-17T06:25:26;642.50;;;594.28;;
22060;SDS011;11194;48.092;-1.382;2024-03-17T06:27:53;625.95;;;577.33;;
22060;SDS011;11194;48.092;-1.382;2024-03-17T06:30:19;637.75;;;589.80;;
22060;SDS011;11194;48.092;-1.382;2024-03-17T06:32:46;641.65;;;593.22;;
22060;SDS011;11194;48.092;-1.382;2024-03-17T06:35:13;656.50;;;607.40;;
22060;SDS011;11194;48.092;-1.382;2024-03-17T06:37:43;639.55;;;591.15;;
22060;SDS011;11194;48.092;-1.382;2024-03-17T06:40:11;634.33;;;585.38;;
22060;SDS011;11194;48.092;-1.382;2024-03-17T06:42:38;639.28;;;589.80;;
22060;SDS011;11194;48.092;-1.382;2024-03-17T06:45:05;643.50;;;594.38;;
22060;SDS011;11194;48.092;-1.382;2024-03-17T06:47:33;638.03;;;589.80;;
22060;SDS011;11194;48.092;-1.382;2024-03-17T06:50:00;626.35;;;579.08;;
22060;SDS011;11194;48.092;-1.382;2024-03-17T06:52:26;623.55;;;576.55;;
22060;SDS011;11194;48.092;-1.382;2024-03-17T06:54:52;618.58;;;571.72;;
22060;SDS011;11194;48.092;-1.382;2024-03-17T06:57:18;613.10;;;566.75;;
22060;SDS011;11194;48.092;-1.382;2024-03-17T06:59:44;606.08;;;560.53;;
22060;SDS011;11194;48.092;-1.382;2024-03-17T07:02:11;610.70;;;565.20;;
22060;SDS011;11194;48.092;-1.382;2024-03-17T07:04:40;594.70;;;549.17;;
22060;SDS011;11194;48.092;-1.382;2024-03-17T07:07:06;590.55;;;545.65;;
22060;SDS011;11194;48.092;-1.382;2024-03-17T07:09:33;602.20;;;557.05;;
22060;SDS011;11194;48.092;-1.382;2024-03-17T07:11:59;593.00;;;548.70;;
22060;SDS011;11194;48.092;-1.382;2024-03-17T07:14:25;592.30;;;548.35;;
22060;SDS011;11194;48.092;-1.382;2024-03-17T07:16:51;613.22;;;568.55;;
22060;SDS011;11194;48.092;-1.382;2024-03-17T07:19:17;604.53;;;559.70;;
22060;SDS011;11194;48.092;-1.382;2024-03-17T07:21:43;610.70;;;566.65;;
22060;SDS011;11194;48.092;-1.382;2024-03-17T07:24:10;596.85;;;553.35;;
22060;SDS011;11194;48.092;-1.382;2024-03-17T07:26:36;607.08;;;562.78;;
22060;SDS011;11194;48.092;-1.382;2024-03-17T07:29:02;614.92;;;570.53;;
22060;SDS011;11194;48.092;-1.382;2024-03-17T07:31:28;611.00;;;566.63;;
22060;SDS011;11194;48.092;-1.382;2024-03-17T07:33:54;620.33;;;575.85;;
22060;SDS011;11194;48.092;-1.382;2024-03-17T07:36:20;605.08;;;561.03;;
22060;SDS011;11194;48.092;-1.382;2024-03-17T07:38:47;621.42;;;576.60;;
22060;SDS011;11194;48.092;-1.382;2024-03-17T07:41:13;625.53;;;580.65;;
22060;SDS011;11194;48.092;-1.382;2024-03-17T07:43:39;614.33;;;570.08;;
22060;SDS011;11194;48.092;-1.382;2024-03-17T07:46:07;616.38;;;571.83;;
22060;SDS011;11194;48.092;-1.382;2024-03-17T07:48:35;607.83;;;563.90;;
22060;SDS011;11194;48.092;-1.382;2024-03-17T07:51:03;613.78;;;569.33;;
22060;SDS011;11194;48.092;-1.382;2024-03-17T07:53:29;617.70;;;573.13;;
22060;SDS011;11194;48.092;-1.382;2024-03-17T07:58:25;626.47;;;581.95;;
22060;SDS011;11194;48.092;-1.382;2024-03-17T08:00:58;609.00;;;564.97;;
22060;SDS011;11194;48.092;-1.382;2024-03-17T08:03:24;598.45;;;555.47;;
22060;SDS011;11194;48.092;-1.382;2024-03-17T08:05:51;616.72;;;573.38;;
22060;SDS011;11194;48.092;-1.382;2024-03-17T08:08:17;583.38;;;541.15;;
22060;SDS011;11194;48.092;-1.382;2024-03-17T08:10:44;578.80;;;537.45;;
22060;SDS011;11194;48.092;-1.382;2024-03-17T08:13:11;586.30;;;544.47;;
22060;SDS011;11194;48.092;-1.382;2024-03-17T08:15:41;595.65;;;554.10;;
22060;SDS011;11194;48.092;-1.382;2024-03-17T08:18:07;591.03;;;549.30;;
22060;SDS011;11194;48.092;-1.382;2024-03-17T08:20:40;554.83;;;515.00;;
22060;SDS011;11194;48.092;-1.382;2024-03-17T08:23:07;609.42;;;567.15;;
22060;SDS011;11194;48.092;-1.382;2024-03-17T08:25:34;581.28;;;540.47;;
22060;SDS011;11194;48.092;-1.382;2024-03-17T08:28:00;580.60;;;539.10;;
22060;SDS011;11194;48.092;-1.382;2024-03-17T08:30:27;603.45;;;561.20;;
22060;SDS011;11194;48.092;-1.382;2024-03-17T08:32:53;597.88;;;555.70;;
22060;SDS011;11194;48.092;-1.382;2024-03-17T08:35:20;602.55;;;559.75;;
22060;SDS011;11194;48.092;-1.382;2024-03-17T08:37:46;602.17;;;559.45;;
22060;SDS011;11194;48.092;-1.382;2024-03-17T08:40:12;613.72;;;570.50;;
22060;SDS011;11194;48.092;-1.382;2024-03-17T08:42:39;615.85;;;572.95;;
22060;SDS011;11194;48.092;-1.382;2024-03-17T08:45:05;606.67;;;564.03;;
22060;SDS011;11194;48.092;-1.382;2024-03-17T08:47:32;621.20;;;578.17;;
22060;SDS011;11194;48.092;-1.382;2024-03-17T08:49:58;621.97;;;578.90;;
22060;SDS011;11194;48.092;-1.382;2024-03-17T08:52:29;610.78;;;568.30;;
22060;SDS011;11194;48.092;-1.382;2024-03-17T08:54:57;591.65;;;548.55;;
22060;SDS011;11194;48.092;-1.382;2024-03-17T08:57:23;628.03;;;584.75;;
22060;SDS011;11194;48.092;-1.382;2024-03-17T08:59:49;614.65;;;571.67;;
22060;SDS011;11194;48.092;-1.382;2024-03-17T09:02:18;625.90;;;581.97;;
22060;SDS011;11194;48.092;-1.382;2024-03-17T09:04:46;613.38;;;569.60;;
22060;SDS011;11194;48.092;-1.382;2024-03-17T09:07:12;624.45;;;580.22;;
22060;SDS011;11194;48.092;-1.382;2024-03-17T09:09:40;623.88;;;579.42;;
22060;SDS011;11194;48.092;-1.382;2024-03-17T09:12:07;605.05;;;561.22;;
22060;SDS011;11194;48.092;-1.382;2024-03-17T09:14:33;604.78;;;561.20;;
22060;SDS011;11194;48.092;-1.382;2024-03-17T09:16:59;606.70;;;563.22;;
22060;SDS011;11194;48.092;-1.382;2024-03-17T09:19:25;615.92;;;571.97;;
22060;SDS011;11194;48.092;-1.382;2024-03-17T09:21:51;618.15;;;573.97;;
22060;SDS011;11194;48.092;-1.382;2024-03-17T09:24:17;607.70;;;564.38;;
22060;SDS011;11194;48.092;-1.382;2024-03-17T09:26:46;626.63;;;582.30;;
22060;SDS011;11194;48.092;-1.382;2024-03-17T09:29:12;596.78;;;553.67;;
22060;SDS011;11194;48.092;-1.382;2024-03-17T09:31:40;596.25;;;554.13;;
22060;SDS011;11194;48.092;-1.382;2024-03-17T09:34:07;610.25;;;566.60;;
22060;SDS011;11194;48.092;-1.382;2024-03-17T09:36:33;594.22;;;552.40;;
22060;SDS011;11194;48.092;-1.382;2024-03-17T09:38:59;597.30;;;556.08;;
22060;SDS011;11194;48.092;-1.382;2024-03-17T09:41:29;573.78;;;535.03;;
22060;SDS011;11194;48.092;-1.382;2024-03-17T09:43:56;575.05;;;536.72;;
22060;SDS011;11194;48.092;-1.382;2024-03-17T09:46:26;568.63;;;533.63;;
22060;SDS011;11194;48.092;-1.382;2024-03-17T09:48:54;576.38;;;540.80;;
22060;SDS011;11194;48.092;-1.382;2024-03-17T09:51:24;574.78;;;541.47;;
22060;SDS011;11194;48.092;-1.382;2024-03-17T09:53:50;551.22;;;519.50;;
22060;SDS011;11194;48.092;-1.382;2024-03-17T09:56:18;536.00;;;506.55;;
22060;SDS011;11194;48.092;-1.382;2024-03-17T09:58:44;580.85;;;549.05;;
22060;SDS011;11194;48.092;-1.382;2024-03-17T10:01:11;549.92;;;519.90;;
22060;SDS011;11194;48.092;-1.382;2024-03-17T10:03:50;545.72;;;517.35;;
22060;SDS011;11194;48.092;-1.382;2024-03-17T10:06:18;542.70;;;516.15;;
22060;SDS011;11194;48.092;-1.382;2024-03-17T10:08:44;519.65;;;493.45;;
22060;SDS011;11194;48.092;-1.382;2024-03-17T10:11:11;529.42;;;503.90;;
22060;SDS011;11194;48.092;-1.382;2024-03-17T10:13:38;566.45;;;538.70;;
22060;SDS011;11194;48.092;-1.382;2024-03-17T10:16:04;536.22;;;510.77;;
22060;SDS011;11194;48.092;-1.382;2024-03-17T10:18:31;532.53;;;506.98;;
22060;SDS011;11194;48.092;-1.382;2024-03-17T10:21:00;532.25;;;508.05;;
22060;SDS011;11194;48.092;-1.382;2024-03-17T10:23:27;571.85;;;544.95;;
22060;SDS011;11194;48.092;-1.382;2024-03-17T10:25:56;593.25;;;563.88;;
22060;SDS011;11194;48.092;-1.382;2024-03-17T10:28:22;609.22;;;577.22;;
22060;SDS011;11194;48.092;-1.382;2024-03-17T10:30:58;622.58;;;588.10;;
22060;SDS011;11194;48.092;-1.382;2024-03-17T10:33:27;618.30;;;584.20;;
22060;SDS011;11194;48.092;-1.382;2024-03-17T10:36:00;619.03;;;583.60;;
22060;SDS011;11194;48.092;-1.382;2024-03-17T10:38:26;593.60;;;562.00;;
22060;SDS011;11194;48.092;-1.382;2024-03-17T10:40:53;552.55;;;524.78;;
22060;SDS011;11194;48.092;-1.382;2024-03-17T10:43:19;480.65;;;459.98;;
22060;SDS011;11194;48.092;-1.382;2024-03-17T10:45:52;518.65;;;496.80;;
22060;SDS011;11194;48.092;-1.382;2024-03-17T10:48:19;540.25;;;516.38;;
22060;SDS011;11194;48.092;-1.382;2024-03-17T10:50:49;542.78;;;518.20;;
22060;SDS011;11194;48.092;-1.382;2024-03-17T10:53:16;542.17;;;517.88;;
22060;SDS011;11194;48.092;-1.382;2024-03-17T10:55:51;521.58;;;499.75;;
22060;SDS011;11194;48.092;-1.382;2024-03-17T11:00:49;442.10;;;425.15;;
22060;SDS011;11194;48.092;-1.382;2024-03-17T11:03:15;426.85;;;411.15;;
22060;SDS011;11194;48.092;-1.382;2024-03-17T11:05:43;430.90;;;414.70;;
22060;SDS011;11194;48.092;-1.382;2024-03-17T11:08:09;429.05;;;413.08;;
22060;SDS011;11194;48.092;-1.382;2024-03-17T11:10:41;446.80;;;430.00;;
22060;SDS011;11194;48.092;-1.382;2024-03-17T11:13:24;491.05;;;472.15;;
22060;SDS011;11194;48.092;-1.382;2024-03-17T11:15:50;422.08;;;406.17;;
22060;SDS011;11194;48.092;-1.382;2024-03-17T11:21:06;421.83;;;405.83;;
22060;SDS011;11194;48.092;-1.382;2024-03-17T11:23:35;406.65;;;391.52;;
22060;SDS011;11194;48.092;-1.382;2024-03-17T11:26:05;377.42;;;363.52;;
22060;SDS011;11194;48.092;-1.382;2024-03-17T11:28:52;397.20;;;382.15;;
22060;SDS011;11194;48.092;-1.382;2024-03-17T11:34:31;353.40;;;340.48;;
22060;SDS011;11194;48.092;-1.382;2024-03-17T11:36:58;286.17;;;276.15;;
22060;SDS011;11194;48.092;-1.382;2024-03-17T11:42:10;357.67;;;344.80;;
22060;SDS011;11194;48.092;-1.382;2024-03-17T11:44:41;308.80;;;297.95;;
22060;SDS011;11194;48.092;-1.382;2024-03-17T11:47:07;326.10;;;314.55;;
22060;SDS011;11194;48.092;-1.382;2024-03-17T11:49:34;348.15;;;335.55;;
22060;SDS011;11194;48.092;-1.382;2024-03-17T11:54:53;322.52;;;311.08;;
22060;SDS011;11194;48.092;-1.382;2024-03-17T11:57:29;294.15;;;283.83;;
22060;SDS011;11194;48.092;-1.382;2024-03-17T11:59:55;294.27;;;283.90;;
22060;SDS011;11194;48.092;-1.382;2024-03-17T12:02:51;297.60;;;287.23;;
22060;SDS011;11194;48.092;-1.382;2024-03-17T12:05:25;304.73;;;294.00;;
22060;SDS011;11194;48.092;-1.382;2024-03-17T12:10:46;308.90;;;298.20;;
22060;SDS011;11194;48.092;-1.382;2024-03-17T12:13:12;312.95;;;302.08;;
22060;SDS011;11194;48.092;-1.382;2024-03-17T12:15:45;277.13;;;267.60;;
22060;SDS011;11194;48.092;-1.382;2024-03-17T12:18:20;285.00;;;275.20;;
22060;SDS011;11194;48.092;-1.382;2024-03-17T12:20:49;275.38;;;265.88;;
22060;SDS011;11194;48.092;-1.382;2024-03-17T12:23:16;163.32;;;157.52;;
22060;SDS011;11194;48.092;-1.382;2024-03-17T12:25:49;118.95;;;114.63;;
22060;SDS011;11194;48.092;-1.382;2024-03-17T12:28:15;150.45;;;145.07;;
22060;SDS011;11194;48.092;-1.382;2024-03-17T12:30:42;200.52;;;193.68;;
22060;SDS011;11194;48.092;-1.382;2024-03-17T12:33:09;188.18;;;181.68;;
22060;SDS011;11194;48.092;-1.382;2024-03-17T12:35:36;204.07;;;197.13;;
22060;SDS011;11194;48.092;-1.382;2024-03-17T12:38:26;183.27;;;176.93;;
22060;SDS011;11194;48.092;-1.382;2024-03-17T12:40:51;149.20;;;143.90;;
22060;SDS011;11194;48.092;-1.382;2024-03-17T12:43:17;98.53;;;94.88;;
22060;SDS011;11194;48.092;-1.382;2024-03-17T12:45:43;79.68;;;76.60;;
22060;SDS011;11194;48.092;-1.382;2024-03-17T12:48:13;70.43;;;67.65;;
22060;SDS011;11194;48.092;-1.382;2024-03-17T12:50:46;99.05;;;95.35;;
22060;SDS011;11194;48.092;-1.382;2024-03-17T12:53:15;99.72;;;96.03;;
22060;SDS011;11194;48.092;-1.382;2024-03-17T12:55:53;95.45;;;91.85;;
22060;SDS011;11194;48.092;-1.382;2024-03-17T12:58:38;71.65;;;68.85;;
22060;SDS011;11194;48.092;-1.382;2024-03-17T13:01:23;89.25;;;85.85;;
22060;SDS011;11194;48.092;-1.382;2024-03-17T13:03:49;113.05;;;108.95;;
22060;SDS011;11194;48.092;-1.382;2024-03-17T13:06:22;98.07;;;94.43;;
22060;SDS011;11194;48.092;-1.382;2024-03-17T13:08:52;103.72;;;99.90;;
22060;SDS011;11194;48.092;-1.382;2024-03-17T13:11:18;81.95;;;78.80;;
22060;SDS011;11194;48.092;-1.382;2024-03-17T13:13:44;69.70;;;67.00;;
22060;SDS011;11194;48.092;-1.382;2024-03-17T13:16:10;40.63;;;39.03;;
22060;SDS011;11194;48.092;-1.382;2024-03-17T13:18:38;30.38;;;29.17;;
22060;SDS011;11194;48.092;-1.382;2024-03-17T13:21:04;42.08;;;40.40;;
22060;SDS011;11194;48.092;-1.382;2024-03-17T13:23:31;48.75;;;46.80;;
22060;SDS011;11194;48.092;-1.382;2024-03-17T13:25:57;54.53;;;52.38;;
22060;SDS011;11194;48.092;-1.382;2024-03-17T13:28:23;47.80;;;45.90;;
22060;SDS011;11194;48.092;-1.382;2024-03-17T13:30:49;49.55;;;47.55;;
22060;SDS011;11194;48.092;-1.382;2024-03-17T13:33:15;36.78;;;35.30;;
22060;SDS011;11194;48.092;-1.382;2024-03-17T13:35:43;29.38;;;28.23;;
22060;SDS011;11194;48.092;-1.382;2024-03-17T13:38:09;27.45;;;26.35;;
22060;SDS011;11194;48.092;-1.382;2024-03-17T13:40:36;38.50;;;36.97;;
22060;SDS011;11194;48.092;-1.382;2024-03-17T13:43:03;43.58;;;41.85;;
22060;SDS011;11194;48.092;-1.382;2024-03-17T13:45:38;58.13;;;55.83;;
22060;SDS011;11194;48.092;-1.382;2024-03-17T13:48:13;48.55;;;46.63;;
22060;SDS011;11194;48.092;-1.382;2024-03-17T13:50:39;36.50;;;35.03;;
22060;SDS011;11194;48.092;-1.382;2024-03-17T13:53:07;20.50;;;19.70;;
22060;SDS011;11194;48.092;-1.382;2024-03-17T13:55:39;15.10;;;14.50;;
22060;SDS011;11194;48.092;-1.382;2024-03-17T13:58:05;11.00;;;10.60;;
22060;SDS011;11194;48.092;-1.382;2024-03-17T14:00:32;12.55;;;12.05;;
22060;SDS011;11194;48.092;-1.382;2024-03-17T14:03:07;9.30;;;8.98;;
22060;SDS011;11194;48.092;-1.382;2024-03-17T14:05:34;6.07;;;5.88;;
22060;SDS011;11194;48.092;-1.382;2024-03-17T14:08:03;5.43;;;5.22;;